sensor_id;sensor_type;location;lat;lon;timestamp;P1;durP1;ratioP1;P2;durP2;ratioP2
57615;SDS011;43816;52.054;-9.494;2022-08-18T00:00:06;1.00;;;0.30;;
57615;SDS011;43816;52.054;-9.494;2022-08-18T00:00:18;1.00;;;0.30;;
57615;SDS011;43816;52.054;-9.494;2022-08-18T00:00:29;0.23;;;0.23;;
57615;SDS011;43816;52.054;-9.494;2022-08-18T00:00:41;0.20;;;0.20;;
57615;SDS011;43816;52.054;-9.494;2022-08-18T00:00:51;0.20;;;0.20;;
57615;SDS011;43816;52.054;-9.494;2022-08-18T00:01:02;0.40;;;0.20;;
57615;SDS011;43816;52.054;-9.494;2022-08-18T00:01:13;0.30;;;0.27;;
57615;SDS011;43816;52.054;-9.494;2022-08-18T00:01:25;0.30;;;0.20;;
57615;SDS011;43816;52.054;-9.494;2022-08-18T00:01:35;0.20;;;0.20;;
57615;SDS011;43816;52.054;-9.494;2022-08-18T00:01:47;0.13;;;0.13;;
57615;SDS011;43816;52.054;-9.494;2022-08-18T00:02:01;0.20;;;0.20;;
57615;SDS011;43816;52.054;-9.494;2022-08-18T00:02:20;0.20;;;0.20;;
57615;SDS011;43816;52.054;-9.494;2022-08-18T00:02:33;0.20;;;0.20;;
57615;SDS011;43816;52.054;-9.494;2022-08-18T00:02:43;0.20;;;0.20;;
57615;SDS011;43816;52.054;-9.494;2022-08-18T00:02:53;0.22;;;0.20;;
57615;SDS011;43816;52.054;-9.494;2022-08-18T00:03:08;0.20;;;0.20;;
57615;SDS011;43816;52.054;-9.494;2022-08-18T00:03:19;0.20;;;0.20;;
57615;SDS011;43816;52.054;-9.494;2022-08-18T00:03:29;0.20;;;0.20;;
57615;SDS011;43816;52.054;-9.494;2022-08-18T00:03:40;0.20;;;0.20;;
57615;SDS011;43816;52.054;-9.494;2022-08-18T00:03:51;0.20;;;0.20;;
57615;SDS011;43816;52.054;-9.494;2022-08-18T00:04:01;0.27;;;0.27;;
57615;SDS011;43816;52.054;-9.494;2022-08-18T00:04:11;0.30;;;0.30;;
57615;SDS011;43816;52.054;-9.494;2022-08-18T00:04:22;0.23;;;0.23;;
57615;SDS011;43816;52.054;-9.494;2022-08-18T00:04:33;0.20;;;0.20;;
57615;SDS011;43816;52.054;-9.494;2022-08-18T00:04:43;0.40;;;0.20;;
57615;SDS011;43816;52.054;-9.494;2022-08-18T00:04:55;0.43;;;0.28;;
57615;SDS011;43816;52.054;-9.494;2022-08-18T00:05:06;0.35;;;0.30;;
57615;SDS011;43816;52.054;-9.494;2022-08-18T00:05:17;0.50;;;0.25;;
57615;SDS011;43816;52.054;-9.494;2022-08-18T00:05:27;0.43;;;0.20;;
57615;SDS011;43816;52.054;-9.494;2022-08-18T00:05:38;0.20;;;0.10;;
57615;SDS011;43816;52.054;-9.494;2022-08-18T00:05:48;0.13;;;0.10;;
57615;SDS011;43816;52.054;-9.494;2022-08-18T00:05:58;0.20;;;0.10;;
57615;SDS011;43816;52.054;-9.494;2022-08-18T00:06:08;0.20;;;0.13;;
57615;SDS011;43816;52.054;-9.494;2022-08-18T00:06:19;0.23;;;0.20;;
57615;SDS011;43816;52.054;-9.494;2022-08-18T00:06:29;0.30;;;0.30;;
57615;SDS011;43816;52.054;-9.494;2022-08-18T00:06:40;0.50;;;0.30;;
57615;SDS011;43816;52.054;-9.494;2022-08-18T00:06:50;0.50;;;0.20;;
57615;SDS011;43816;52.054;-9.494;2022-08-18T00:07:01;0.40;;;0.23;;
57615;SDS011;43816;52.054;-9.494;2022-08-18T00:07:13;0.20;;;0.20;;
57615;SDS011;43816;52.054;-9.494;2022-08-18T00:07:27;0.30;;;0.30;;
57615;SDS011;43816;52.054;-9.494;2022-08-18T00:07:39;0.22;;;0.22;;
57615;SDS011;43816;52.054;-9.494;2022-08-18T00:07:50;0.20;;;0.20;;
57615;SDS011;43816;52.054;-9.494;2022-08-18T00:08:00;0.38;;;0.20;;
57615;SDS011;43816;52.054;-9.494;2022-08-18T00:08:11;0.50;;;0.30;;
57615;SDS011;43816;52.054;-9.494;2022-08-18T00:08:21;0.38;;;0.22;;
57615;SDS011;43816;52.054;-9.494;2022-08-18T00:08:31;0.23;;;0.20;;
57615;SDS011;43816;52.054;-9.494;2022-08-18T00:08:42;0.20;;;0.20;;
57615;SDS011;43816;52.054;-9.494;2022-08-18T00:08:52;0.17;;;0.17;;
57615;SDS011;43816;52.054;-9.494;2022-08-18T00:09:04;0.30;;;0.30;;
57615;SDS011;43816;52.054;-9.494;2022-08-18T00:09:16;0.30;;;0.30;;
57615;SDS011;43816;52.054;-9.494;2022-08-18T00:09:26;0.20;;;0.20;;
57615;SDS011;43816;52.054;-9.494;2022-08-18T00:09:37;0.17;;;0.17;;
57615;SDS011;43816;52.054;-9.494;2022-08-18T00:09:48;0.20;;;0.20;;
57615;SDS011;43816;52.054;-9.494;2022-08-18T00:09:59;0.20;;;0.20;;
57615;SDS011;43816;52.054;-9.494;2022-08-18T00:10:10;0.28;;;0.20;;
57615;SDS011;43816;52.054;-9.494;2022-08-18T00:10:21;0.20;;;0.17;;
57615;SDS011;43816;52.054;-9.494;2022-08-18T00:10:31;0.20;;;0.20;;
57615;SDS011;43816;52.054;-9.494;2022-08-18T00:10:42;0.20;;;0.20;;
57615;SDS011;43816;52.054;-9.494;2022-08-18T00:10:52;0.20;;;0.20;;
57615;SDS011;43816;52.054;-9.494;2022-08-18T00:11:02;0.20;;;0.20;;
57615;SDS011;43816;52.054;-9.494;2022-08-18T00:11:13;0.22;;;0.22;;
57615;SDS011;43816;52.054;-9.494;2022-08-18T00:11:24;0.20;;;0.20;;
57615;SDS011;43816;52.054;-9.494;2022-08-18T00:11:38;0.20;;;0.20;;
57615;SDS011;43816;52.054;-9.494;2022-08-18T00:11:50;0.28;;;0.28;;
57615;SDS011;43816;52.054;-9.494;2022-08-18T00:12:01;0.20;;;0.20;;
57615;SDS011;43816;52.054;-9.494;2022-08-18T00:12:16;0.17;;;0.17;;
57615;SDS011;43816;52.054;-9.494;2022-08-18T00:12:30;0.13;;;0.13;;
57615;SDS011;43816;52.054;-9.494;2022-08-18T00:12:46;0.25;;;0.20;;
57615;SDS011;43816;52.054;-9.494;2022-08-18T00:12:56;0.30;;;0.22;;
57615;SDS011;43816;52.054;-9.494;2022-08-18T00:13:07;0.40;;;0.23;;
57615;SDS011;43816;52.054;-9.494;2022-08-18T00:13:17;0.30;;;0.20;;
57615;SDS011;43816;52.054;-9.494;2022-08-18T00:13:27;0.38;;;0.20;;
57615;SDS011;43816;52.054;-9.494;2022-08-18T00:13:38;0.30;;;0.20;;
57615;SDS011;43816;52.054;-9.494;2022-08-18T00:13:48;0.20;;;0.10;;
57615;SDS011;43816;52.054;-9.494;2022-08-18T00:13:58;0.10;;;0.10;;
57615;SDS011;43816;52.054;-9.494;2022-08-18T00:14:11;0.20;;;0.20;;
57615;SDS011;43816;52.054;-9.494;2022-08-18T00:14:25;0.20;;;0.20;;
57615;SDS011;43816;52.054;-9.494;2022-08-18T00:14:35;0.10;;;0.10;;
57615;SDS011;43816;52.054;-9.494;2022-08-18T00:14:45;0.20;;;0.20;;
57615;SDS011;43816;52.054;-9.494;2022-08-18T00:14:56;0.20;;;0.20;;
57615;SDS011;43816;52.054;-9.494;2022-08-18T00:15:09;0.20;;;0.20;;
57615;SDS011;43816;52.054;-9.494;2022-08-18T00:15:21;0.20;;;0.20;;
57615;SDS011;43816;52.054;-9.494;2022-08-18T00:15:32;0.20;;;0.20;;
57615;SDS011;43816;52.054;-9.494;2022-08-18T00:15:42;0.20;;;0.20;;
57615;SDS011;43816;52.054;-9.494;2022-08-18T00:15:53;0.20;;;0.20;;
57615;SDS011;43816;52.054;-9.494;2022-08-18T00:16:03;0.20;;;0.20;;
57615;SDS011;43816;52.054;-9.494;2022-08-18T00:16:13;0.50;;;0.20;;
57615;SDS011;43816;52.054;-9.494;2022-08-18T00:16:24;0.50;;;0.20;;
57615;SDS011;43816;52.054;-9.494;2022-08-18T00:16:34;0.50;;;0.13;;
57615;SDS011;43816;52.054;-9.494;2022-08-18T00:16:44;0.20;;;0.20;;
57615;SDS011;43816;52.054;-9.494;2022-08-18T00:16:54;0.20;;;0.20;;
57615;SDS011;43816;52.054;-9.494;2022-08-18T00:17:05;0.20;;;0.20;;
57615;SDS011;43816;52.054;-9.494;2022-08-18T00:17:16;0.20;;;0.20;;
57615;SDS011;43816;52.054;-9.494;2022-08-18T00:17:26;0.20;;;0.20;;
57615;SDS011;43816;52.054;-9.494;2022-08-18T00:17:37;0.20;;;0.20;;
57615;SDS011;43816;52.054;-9.494;2022-08-18T00:17:48;0.28;;;0.28;;
57615;SDS011;43816;52.054;-9.494;2022-08-18T00:17:58;0.23;;;0.23;;
57615;SDS011;43816;52.054;-9.494;2022-08-18T00:18:09;0.20;;;0.20;;
57615;SDS011;43816;52.054;-9.494;2022-08-18T00:18:19;0.13;;;0.13;;
57615;SDS011;43816;52.054;-9.494;2022-08-18T00:18:29;0.17;;;0.17;;
57615;SDS011;43816;52.054;-9.494;2022-08-18T00:18:39;0.20;;;0.20;;
57615;SDS011;43816;52.054;-9.494;2022-08-18T00:18:50;0.13;;;0.13;;
57615;SDS011;43816;52.054;-9.494;2022-08-18T00:19:00;0.10;;;0.10;;
57615;SDS011;43816;52.054;-9.494;2022-08-18T00:19:10;0.33;;;0.10;;
57615;SDS011;43816;52.054;-9.494;2022-08-18T00:19:21;0.40;;;0.10;;
57615;SDS011;43816;52.054;-9.494;2022-08-18T00:19:32;0.35;;;0.10;;
57615;SDS011;43816;52.054;-9.494;2022-08-18T00:19:43;0.20;;;0.10;;
57615;SDS011;43816;52.054;-9.494;2022-08-18T00:19:54;0.17;;;0.17;;
57615;SDS011;43816;52.054;-9.494;2022-08-18T00:20:05;0.20;;;0.20;;
57615;SDS011;43816;52.054;-9.494;2022-08-18T00:20:19;0.20;;;0.20;;
57615;SDS011;43816;52.054;-9.494;2022-08-18T00:20:31;0.13;;;0.13;;
57615;SDS011;43816;52.054;-9.494;2022-08-18T00:20:41;0.17;;;0.17;;
57615;SDS011;43816;52.054;-9.494;2022-08-18T00:20:52;0.20;;;0.20;;
57615;SDS011;43816;52.054;-9.494;2022-08-18T00:21:02;0.20;;;0.20;;
57615;SDS011;43816;52.054;-9.494;2022-08-18T00:21:13;0.17;;;0.17;;
57615;SDS011;43816;52.054;-9.494;2022-08-18T00:21:23;0.20;;;0.20;;
57615;SDS011;43816;52.054;-9.494;2022-08-18T00:21:33;0.20;;;0.20;;
57615;SDS011;43816;52.054;-9.494;2022-08-18T00:21:43;0.20;;;0.20;;
57615;SDS011;43816;52.054;-9.494;2022-08-18T00:21:54;0.20;;;0.20;;
57615;SDS011;43816;52.054;-9.494;2022-08-18T00:22:04;0.20;;;0.20;;
57615;SDS011;43816;52.054;-9.494;2022-08-18T00:22:16;0.17;;;0.10;;
57615;SDS011;43816;52.054;-9.494;2022-08-18T00:22:28;0.20;;;0.20;;
57615;SDS011;43816;52.054;-9.494;2022-08-18T00:22:38;0.22;;;0.22;;
57615;SDS011;43816;52.054;-9.494;2022-08-18T00:22:49;0.80;;;0.45;;
57615;SDS011;43816;52.054;-9.494;2022-08-18T00:23:00;1.30;;;0.57;;
57615;SDS011;43816;52.054;-9.494;2022-08-18T00:23:10;1.60;;;0.53;;
57615;SDS011;43816;52.054;-9.494;2022-08-18T00:23:20;0.80;;;0.30;;
57615;SDS011;43816;52.054;-9.494;2022-08-18T00:23:30;0.50;;;0.20;;
57615;SDS011;43816;52.054;-9.494;2022-08-18T00:23:41;0.20;;;0.20;;
57615;SDS011;43816;52.054;-9.494;2022-08-18T00:23:51;0.60;;;0.22;;
57615;SDS011;43816;52.054;-9.494;2022-08-18T00:24:03;0.55;;;0.20;;
57615;SDS011;43816;52.054;-9.494;2022-08-18T00:24:13;0.55;;;0.25;;
57615;SDS011;43816;52.054;-9.494;2022-08-18T00:24:24;0.10;;;0.10;;
57615;SDS011;43816;52.054;-9.494;2022-08-18T00:24:35;0.10;;;0.10;;
57615;SDS011;43816;52.054;-9.494;2022-08-18T00:24:47;0.10;;;0.10;;
57615;SDS011;43816;52.054;-9.494;2022-08-18T00:24:59;0.13;;;0.13;;
57615;SDS011;43816;52.054;-9.494;2022-08-18T00:25:10;0.20;;;0.20;;
57615;SDS011;43816;52.054;-9.494;2022-08-18T00:25:23;0.10;;;0.10;;
57615;SDS011;43816;52.054;-9.494;2022-08-18T00:25:33;0.10;;;0.10;;
57615;SDS011;43816;52.054;-9.494;2022-08-18T00:25:43;0.10;;;0.10;;
57615;SDS011;43816;52.054;-9.494;2022-08-18T00:25:54;0.10;;;0.10;;
57615;SDS011;43816;52.054;-9.494;2022-08-18T00:26:04;0.10;;;0.10;;
57615;SDS011;43816;52.054;-9.494;2022-08-18T00:26:15;0.10;;;0.10;;
57615;SDS011;43816;52.054;-9.494;2022-08-18T00:26:25;0.10;;;0.10;;
57615;SDS011;43816;52.054;-9.494;2022-08-18T00:26:35;0.20;;;0.20;;
57615;SDS011;43816;52.054;-9.494;2022-08-18T00:26:45;0.20;;;0.20;;
57615;SDS011;43816;52.054;-9.494;2022-08-18T00:26:56;0.20;;;0.20;;
57615;SDS011;43816;52.054;-9.494;2022-08-18T00:27:06;0.10;;;0.10;;
57615;SDS011;43816;52.054;-9.494;2022-08-18T00:27:18;0.10;;;0.10;;
57615;SDS011;43816;52.054;-9.494;2022-08-18T00:27:30;0.10;;;0.10;;
57615;SDS011;43816;52.054;-9.494;2022-08-18T00:27:41;0.25;;;0.10;;
57615;SDS011;43816;52.054;-9.494;2022-08-18T00:27:51;0.40;;;0.10;;
57615;SDS011;43816;52.054;-9.494;2022-08-18T00:28:01;0.40;;;0.10;;
57615;SDS011;43816;52.054;-9.494;2022-08-18T00:28:12;0.17;;;0.10;;
57615;SDS011;43816;52.054;-9.494;2022-08-18T00:28:22;0.10;;;0.10;;
57615;SDS011;43816;52.054;-9.494;2022-08-18T00:28:33;0.20;;;0.20;;
57615;SDS011;43816;52.054;-9.494;2022-08-18T00:28:43;0.20;;;0.20;;
57615;SDS011;43816;52.054;-9.494;2022-08-18T00:28:53;0.20;;;0.20;;
57615;SDS011;43816;52.054;-9.494;2022-08-18T00:29:04;0.13;;;0.13;;
57615;SDS011;43816;52.054;-9.494;2022-08-18T00:29:14;0.17;;;0.17;;
57615;SDS011;43816;52.054;-9.494;2022-08-18T00:29:24;0.10;;;0.10;;
57615;SDS011;43816;52.054;-9.494;2022-08-18T00:29:35;0.17;;;0.10;;
57615;SDS011;43816;52.054;-9.494;2022-08-18T00:29:45;0.20;;;0.10;;
57615;SDS011;43816;52.054;-9.494;2022-08-18T00:29:57;0.20;;;0.20;;
57615;SDS011;43816;52.054;-9.494;2022-08-18T00:30:12;0.10;;;0.10;;
57615;SDS011;43816;52.054;-9.494;2022-08-18T00:30:24;0.10;;;0.10;;
57615;SDS011;43816;52.054;-9.494;2022-08-18T00:30:35;0.20;;;0.20;;
57615;SDS011;43816;52.054;-9.494;2022-08-18T00:30:45;0.13;;;0.10;;
57615;SDS011;43816;52.054;-9.494;2022-08-18T00:30:55;0.10;;;0.10;;
57615;SDS011;43816;52.054;-9.494;2022-08-18T00:31:06;0.10;;;0.10;;
57615;SDS011;43816;52.054;-9.494;2022-08-18T00:31:16;0.10;;;0.10;;
57615;SDS011;43816;52.054;-9.494;2022-08-18T00:31:26;0.13;;;0.13;;
57615;SDS011;43816;52.054;-9.494;2022-08-18T00:31:37;0.30;;;0.20;;
57615;SDS011;43816;52.054;-9.494;2022-08-18T00:31:47;0.30;;;0.20;;
57615;SDS011;43816;52.054;-9.494;2022-08-18T00:31:57;0.20;;;0.13;;
57615;SDS011;43816;52.054;-9.494;2022-08-18T00:32:15;0.13;;;0.13;;
57615;SDS011;43816;52.054;-9.494;2022-08-18T00:32:28;0.10;;;0.10;;
57615;SDS011;43816;52.054;-9.494;2022-08-18T00:32:42;0.20;;;0.10;;
57615;SDS011;43816;52.054;-9.494;2022-08-18T00:32:56;0.10;;;0.10;;
57615;SDS011;43816;52.054;-9.494;2022-08-18T00:33:08;0.15;;;0.15;;
57615;SDS011;43816;52.054;-9.494;2022-08-18T00:33:18;0.25;;;0.20;;
57615;SDS011;43816;52.054;-9.494;2022-08-18T00:33:28;0.40;;;0.20;;
57615;SDS011;43816;52.054;-9.494;2022-08-18T00:33:38;0.37;;;0.20;;
57615;SDS011;43816;52.054;-9.494;2022-08-18T00:33:49;0.25;;;0.20;;
57615;SDS011;43816;52.054;-9.494;2022-08-18T00:33:59;0.20;;;0.20;;
57615;SDS011;43816;52.054;-9.494;2022-08-18T00:34:09;0.10;;;0.10;;
57615;SDS011;43816;52.054;-9.494;2022-08-18T00:34:20;0.10;;;0.10;;
57615;SDS011;43816;52.054;-9.494;2022-08-18T00:34:30;0.10;;;0.10;;
57615;SDS011;43816;52.054;-9.494;2022-08-18T00:34:40;0.10;;;0.10;;
57615;SDS011;43816;52.054;-9.494;2022-08-18T00:34:51;0.10;;;0.10;;
57615;SDS011;43816;52.054;-9.494;2022-08-18T00:35:06;0.17;;;0.17;;
57615;SDS011;43816;52.054;-9.494;2022-08-18T00:35:20;0.10;;;0.10;;
57615;SDS011;43816;52.054;-9.494;2022-08-18T00:35:34;0.20;;;0.10;;
57615;SDS011;43816;52.054;-9.494;2022-08-18T00:35:46;0.10;;;0.10;;
57615;SDS011;43816;52.054;-9.494;2022-08-18T00:35:57;0.17;;;0.10;;
57615;SDS011;43816;52.054;-9.494;2022-08-18T00:36:08;0.20;;;0.20;;
57615;SDS011;43816;52.054;-9.494;2022-08-18T00:36:18;0.50;;;0.20;;
57615;SDS011;43816;52.054;-9.494;2022-08-18T00:36:29;0.50;;;0.20;;
57615;SDS011;43816;52.054;-9.494;2022-08-18T00:36:39;0.27;;;0.17;;
57615;SDS011;43816;52.054;-9.494;2022-08-18T00:36:49;0.10;;;0.10;;
57615;SDS011;43816;52.054;-9.494;2022-08-18T00:37:00;0.10;;;0.10;;
57615;SDS011;43816;52.054;-9.494;2022-08-18T00:37:10;0.30;;;0.13;;
57615;SDS011;43816;52.054;-9.494;2022-08-18T00:37:20;0.40;;;0.20;;
57615;SDS011;43816;52.054;-9.494;2022-08-18T00:37:32;0.40;;;0.20;;
57615;SDS011;43816;52.054;-9.494;2022-08-18T00:37:43;0.20;;;0.20;;
57615;SDS011;43816;52.054;-9.494;2022-08-18T00:37:54;0.20;;;0.20;;
57615;SDS011;43816;52.054;-9.494;2022-08-18T00:38:06;0.13;;;0.13;;
57615;SDS011;43816;52.054;-9.494;2022-08-18T00:38:17;0.10;;;0.10;;
57615;SDS011;43816;52.054;-9.494;2022-08-18T00:38:28;0.10;;;0.10;;
57615;SDS011;43816;52.054;-9.494;2022-08-18T00:38:38;0.10;;;0.10;;
57615;SDS011;43816;52.054;-9.494;2022-08-18T00:38:49;0.17;;;0.17;;
57615;SDS011;43816;52.054;-9.494;2022-08-18T00:39:00;0.10;;;0.10;;
57615;SDS011;43816;52.054;-9.494;2022-08-18T00:39:10;0.10;;;0.10;;
57615;SDS011;43816;52.054;-9.494;2022-08-18T00:39:20;0.10;;;0.10;;
57615;SDS011;43816;52.054;-9.494;2022-08-18T00:39:31;0.10;;;0.10;;
57615;SDS011;43816;52.054;-9.494;2022-08-18T00:39:41;0.10;;;0.10;;
57615;SDS011;43816;52.054;-9.494;2022-08-18T00:39:52;0.10;;;0.10;;
57615;SDS011;43816;52.054;-9.494;2022-08-18T00:40:03;0.10;;;0.10;;
57615;SDS011;43816;52.054;-9.494;2022-08-18T00:40:15;0.10;;;0.10;;
57615;SDS011;43816;52.054;-9.494;2022-08-18T00:40:30;0.10;;;0.10;;
57615;SDS011;43816;52.054;-9.494;2022-08-18T00:40:43;0.20;;;0.20;;
57615;SDS011;43816;52.054;-9.494;2022-08-18T00:40:56;0.20;;;0.20;;
57615;SDS011;43816;52.054;-9.494;2022-08-18T00:41:06;0.10;;;0.10;;
57615;SDS011;43816;52.054;-9.494;2022-08-18T00:41:16;0.10;;;0.10;;
57615;SDS011;43816;52.054;-9.494;2022-08-18T00:41:27;0.13;;;0.13;;
57615;SDS011;43816;52.054;-9.494;2022-08-18T00:41:38;0.20;;;0.20;;
57615;SDS011;43816;52.054;-9.494;2022-08-18T00:41:48;0.20;;;0.20;;
57615;SDS011;43816;52.054;-9.494;2022-08-18T00:41:59;0.13;;;0.13;;
57615;SDS011;43816;52.054;-9.494;2022-08-18T00:42:27;0.20;;;0.20;;
57615;SDS011;43816;52.054;-9.494;2022-08-18T00:42:43;0.20;;;0.20;;
57615;SDS011;43816;52.054;-9.494;2022-08-18T00:43:00;0.20;;;0.20;;
57615;SDS011;43816;52.054;-9.494;2022-08-18T00:43:14;0.20;;;0.20;;
57615;SDS011;43816;52.054;-9.494;2022-08-18T00:43:49;0.10;;;0.10;;
57615;SDS011;43816;52.054;-9.494;2022-08-18T00:44:00;0.10;;;0.10;;
57615;SDS011;43816;52.054;-9.494;2022-08-18T00:44:10;0.10;;;0.10;;
57615;SDS011;43816;52.054;-9.494;2022-08-18T00:44:21;0.10;;;0.10;;
57615;SDS011;43816;52.054;-9.494;2022-08-18T00:44:31;0.10;;;0.10;;
57615;SDS011;43816;52.054;-9.494;2022-08-18T00:44:41;0.20;;;0.20;;
57615;SDS011;43816;52.054;-9.494;2022-08-18T00:44:52;0.20;;;0.20;;
57615;SDS011;43816;52.054;-9.494;2022-08-18T00:45:04;0.17;;;0.10;;
57615;SDS011;43816;52.054;-9.494;2022-08-18T00:45:17;0.15;;;0.10;;
57615;SDS011;43816;52.054;-9.494;2022-08-18T00:45:31;0.10;;;0.10;;
57615;SDS011;43816;52.054;-9.494;2022-08-18T00:45:44;0.10;;;0.10;;
57615;SDS011;43816;52.054;-9.494;2022-08-18T00:45:54;0.10;;;0.10;;
57615;SDS011;43816;52.054;-9.494;2022-08-18T00:46:05;0.10;;;0.10;;
57615;SDS011;43816;52.054;-9.494;2022-08-18T00:46:22;0.10;;;0.10;;
57615;SDS011;43816;52.054;-9.494;2022-08-18T00:46:35;0.10;;;0.10;;
57615;SDS011;43816;52.054;-9.494;2022-08-18T00:46:46;0.10;;;0.10;;
57615;SDS011;43816;52.054;-9.494;2022-08-18T00:46:57;0.10;;;0.10;;
57615;SDS011;43816;52.054;-9.494;2022-08-18T00:47:07;0.10;;;0.10;;
57615;SDS011;43816;52.054;-9.494;2022-08-18T00:47:17;0.10;;;0.10;;
57615;SDS011;43816;52.054;-9.494;2022-08-18T00:47:28;0.10;;;0.10;;
57615;SDS011;43816;52.054;-9.494;2022-08-18T00:47:39;0.20;;;0.10;;
57615;SDS011;43816;52.054;-9.494;2022-08-18T00:47:50;0.10;;;0.10;;
57615;SDS011;43816;52.054;-9.494;2022-08-18T00:48:01;0.10;;;0.10;;
57615;SDS011;43816;52.054;-9.494;2022-08-18T00:48:14;0.10;;;0.10;;
57615;SDS011;43816;52.054;-9.494;2022-08-18T00:48:25;0.10;;;0.10;;
57615;SDS011;43816;52.054;-9.494;2022-08-18T00:48:35;0.10;;;0.10;;
57615;SDS011;43816;52.054;-9.494;2022-08-18T00:48:46;0.10;;;0.10;;
57615;SDS011;43816;52.054;-9.494;2022-08-18T00:48:56;0.10;;;0.10;;
57615;SDS011;43816;52.054;-9.494;2022-08-18T00:49:06;0.10;;;0.10;;
57615;SDS011;43816;52.054;-9.494;2022-08-18T00:49:17;0.10;;;0.10;;
57615;SDS011;43816;52.054;-9.494;2022-08-18T00:49:27;0.10;;;0.10;;
57615;SDS011;43816;52.054;-9.494;2022-08-18T00:49:38;0.10;;;0.10;;
57615;SDS011;43816;52.054;-9.494;2022-08-18T00:49:50;0.30;;;0.10;;
57615;SDS011;43816;52.054;-9.494;2022-08-18T00:50:02;0.30;;;0.10;;
57615;SDS011;43816;52.054;-9.494;2022-08-18T00:50:14;0.25;;;0.10;;
57615;SDS011;43816;52.054;-9.494;2022-08-18T00:50:30;0.10;;;0.10;;
57615;SDS011;43816;52.054;-9.494;2022-08-18T00:50:53;0.20;;;0.20;;
57615;SDS011;43816;52.054;-9.494;2022-08-18T00:51:13;0.28;;;0.20;;
57615;SDS011;43816;52.054;-9.494;2022-08-18T00:51:48;0.20;;;0.20;;
57615;SDS011;43816;52.054;-9.494;2022-08-18T00:52:00;0.10;;;0.10;;
57615;SDS011;43816;52.054;-9.494;2022-08-18T00:52:11;0.17;;;0.17;;
57615;SDS011;43816;52.054;-9.494;2022-08-18T00:52:23;0.20;;;0.20;;
57615;SDS011;43816;52.054;-9.494;2022-08-18T00:52:35;0.10;;;0.10;;
57615;SDS011;43816;52.054;-9.494;2022-08-18T00:52:48;0.10;;;0.10;;
57615;SDS011;43816;52.054;-9.494;2022-08-18T00:53:09;0.30;;;0.15;;
57615;SDS011;43816;52.054;-9.494;2022-08-18T00:53:28;0.25;;;0.10;;
57615;SDS011;43816;52.054;-9.494;2022-08-18T00:53:47;0.10;;;0.10;;
57615;SDS011;43816;52.054;-9.494;2022-08-18T00:54:02;0.10;;;0.10;;
57615;SDS011;43816;52.054;-9.494;2022-08-18T00:54:18;0.20;;;0.20;;
57615;SDS011;43816;52.054;-9.494;2022-08-18T00:54:31;0.15;;;0.10;;
57615;SDS011;43816;52.054;-9.494;2022-08-18T00:54:44;0.10;;;0.10;;
57615;SDS011;43816;52.054;-9.494;2022-08-18T00:54:55;0.10;;;0.10;;
57615;SDS011;43816;52.054;-9.494;2022-08-18T00:55:06;0.10;;;0.10;;
57615;SDS011;43816;52.054;-9.494;2022-08-18T00:55:16;0.20;;;0.10;;
57615;SDS011;43816;52.054;-9.494;2022-08-18T00:55:28;0.20;;;0.20;;
57615;SDS011;43816;52.054;-9.494;2022-08-18T00:55:40;0.20;;;0.20;;
57615;SDS011;43816;52.054;-9.494;2022-08-18T00:55:52;0.10;;;0.10;;
57615;SDS011;43816;52.054;-9.494;2022-08-18T00:56:06;0.10;;;0.10;;
57615;SDS011;43816;52.054;-9.494;2022-08-18T00:56:24;0.10;;;0.10;;
57615;SDS011;43816;52.054;-9.494;2022-08-18T00:56:40;0.10;;;0.10;;
57615;SDS011;43816;52.054;-9.494;2022-08-18T00:56:54;0.10;;;0.10;;
57615;SDS011;43816;52.054;-9.494;2022-08-18T00:57:07;0.28;;;0.10;;
57615;SDS011;43816;52.054;-9.494;2022-08-18T00:57:18;0.30;;;0.13;;
57615;SDS011;43816;52.054;-9.494;2022-08-18T00:57:30;0.40;;;0.20;;
57615;SDS011;43816;52.054;-9.494;2022-08-18T00:57:42;0.25;;;0.20;;
57615;SDS011;43816;52.054;-9.494;2022-08-18T00:57:54;0.20;;;0.20;;
57615;SDS011;43816;52.054;-9.494;2022-08-18T00:58:10;0.10;;;0.10;;
57615;SDS011;43816;52.054;-9.494;2022-08-18T00:58:28;0.10;;;0.10;;
57615;SDS011;43816;52.054;-9.494;2022-08-18T00:58:44;0.10;;;0.10;;
57615;SDS011;43816;52.054;-9.494;2022-08-18T00:59:36;0.40;;;0.10;;
57615;SDS011;43816;52.054;-9.494;2022-08-18T01:00:00;0.10;;;0.10;;
57615;SDS011;43816;52.054;-9.494;2022-08-18T01:00:14;0.20;;;0.20;;
57615;SDS011;43816;52.054;-9.494;2022-08-18T01:00:24;0.17;;;0.13;;
57615;SDS011;43816;52.054;-9.494;2022-08-18T01:00:35;0.10;;;0.10;;
57615;SDS011;43816;52.054;-9.494;2022-08-18T01:00:47;0.13;;;0.10;;
57615;SDS011;43816;52.054;-9.494;2022-08-18T01:01:01;0.20;;;0.10;;
57615;SDS011;43816;52.054;-9.494;2022-08-18T01:01:14;0.20;;;0.20;;
57615;SDS011;43816;52.054;-9.494;2022-08-18T01:01:26;0.10;;;0.10;;
57615;SDS011;43816;52.054;-9.494;2022-08-18T01:01:39;0.10;;;0.10;;
57615;SDS011;43816;52.054;-9.494;2022-08-18T01:01:52;0.20;;;0.10;;
57615;SDS011;43816;52.054;-9.494;2022-08-18T01:02:06;0.20;;;0.10;;
57615;SDS011;43816;52.054;-9.494;2022-08-18T01:02:20;0.10;;;0.10;;
57615;SDS011;43816;52.054;-9.494;2022-08-18T01:02:36;0.10;;;0.10;;
57615;SDS011;43816;52.054;-9.494;2022-08-18T01:02:50;0.22;;;0.00;;
57615;SDS011;43816;52.054;-9.494;2022-08-18T01:03:13;0.30;;;0.00;;
57615;SDS011;43816;52.054;-9.494;2022-08-18T01:03:26;0.10;;;0.10;;
57615;SDS011;43816;52.054;-9.494;2022-08-18T01:03:36;0.30;;;0.10;;
57615;SDS011;43816;52.054;-9.494;2022-08-18T01:03:49;0.30;;;0.10;;
57615;SDS011;43816;52.054;-9.494;2022-08-18T01:04:17;0.10;;;0.10;;
57615;SDS011;43816;52.054;-9.494;2022-08-18T01:05:04;0.10;;;0.10;;
57615;SDS011;43816;52.054;-9.494;2022-08-18T01:05:28;0.10;;;0.10;;
57615;SDS011;43816;52.054;-9.494;2022-08-18T01:05:49;0.13;;;0.13;;
57615;SDS011;43816;52.054;-9.494;2022-08-18T01:06:07;0.15;;;0.15;;
57615;SDS011;43816;52.054;-9.494;2022-08-18T01:06:33;0.10;;;0.10;;
57615;SDS011;43816;52.054;-9.494;2022-08-18T01:06:54;0.10;;;0.10;;
57615;SDS011;43816;52.054;-9.494;2022-08-18T01:07:52;0.10;;;0.10;;
57615;SDS011;43816;52.054;-9.494;2022-08-18T01:08:03;0.10;;;0.10;;
57615;SDS011;43816;52.054;-9.494;2022-08-18T01:08:13;0.10;;;0.10;;
57615;SDS011;43816;52.054;-9.494;2022-08-18T01:08:25;0.03;;;0.03;;
57615;SDS011;43816;52.054;-9.494;2022-08-18T01:08:35;0.00;;;0.00;;
57615;SDS011;43816;52.054;-9.494;2022-08-18T01:08:45;0.00;;;0.00;;
57615;SDS011;43816;52.054;-9.494;2022-08-18T01:08:56;0.10;;;0.10;;
57615;SDS011;43816;52.054;-9.494;2022-08-18T01:09:07;0.10;;;0.10;;
57615;SDS011;43816;52.054;-9.494;2022-08-18T01:09:18;0.10;;;0.10;;
57615;SDS011;43816;52.054;-9.494;2022-08-18T01:09:29;0.00;;;0.00;;
57615;SDS011;43816;52.054;-9.494;2022-08-18T01:09:39;0.00;;;0.00;;
57615;SDS011;43816;52.054;-9.494;2022-08-18T01:09:50;0.00;;;0.00;;
57615;SDS011;43816;52.054;-9.494;2022-08-18T01:10:00;0.03;;;0.03;;
57615;SDS011;43816;52.054;-9.494;2022-08-18T01:10:12;0.10;;;0.10;;
57615;SDS011;43816;52.054;-9.494;2022-08-18T01:10:23;0.10;;;0.10;;
57615;SDS011;43816;52.054;-9.494;2022-08-18T01:10:34;0.10;;;0.10;;
57615;SDS011;43816;52.054;-9.494;2022-08-18T01:10:45;0.10;;;0.10;;
57615;SDS011;43816;52.054;-9.494;2022-08-18T01:10:56;0.10;;;0.10;;
57615;SDS011;43816;52.054;-9.494;2022-08-18T01:11:10;0.10;;;0.10;;
57615;SDS011;43816;52.054;-9.494;2022-08-18T01:11:20;0.10;;;0.03;;
57615;SDS011;43816;52.054;-9.494;2022-08-18T01:11:31;0.10;;;0.00;;
57615;SDS011;43816;52.054;-9.494;2022-08-18T01:11:42;0.03;;;0.03;;
57615;SDS011;43816;52.054;-9.494;2022-08-18T01:11:52;0.10;;;0.10;;
57615;SDS011;43816;52.054;-9.494;2022-08-18T01:12:02;0.10;;;0.10;;
57615;SDS011;43816;52.054;-9.494;2022-08-18T01:12:13;0.10;;;0.10;;
57615;SDS011;43816;52.054;-9.494;2022-08-18T01:12:24;0.10;;;0.10;;
57615;SDS011;43816;52.054;-9.494;2022-08-18T01:12:37;0.10;;;0.10;;
57615;SDS011;43816;52.054;-9.494;2022-08-18T01:12:49;0.10;;;0.10;;
57615;SDS011;43816;52.054;-9.494;2022-08-18T01:13:02;0.03;;;0.03;;